sensor_id;sensor_type;location;lat;lon;timestamp;pressure;altitude;pressure_sealevel;temperature;humidity
29907;BME280;16776;50.958;10.994;2023-12-22T00:00:19;96422.50;;;3.65;97.30
29907;BME280;16776;50.958;10.994;2023-12-22T00:02:47;96428.44;;;3.65;97.00
29907;BME280;16776;50.958;10.994;2023-12-22T00:05:13;96425.13;;;3.63;97.22
29907;BME280;16776;50.958;10.994;2023-12-22T00:07:40;96420.88;;;3.64;97.89
29907;BME280;16776;50.958;10.994;2023-12-22T00:10:07;96422.50;;;3.65;97.40
29907;BME280;16776;50.958;10.994;2023-12-22T00:12:34;96419.09;;;3.66;97.93
29907;BME280;16776;50.958;10.994;2023-12-22T00:15:01;96427.59;;;3.65;96.90
29907;BME280;16776;50.958;10.994;2023-12-22T00:17:27;96428.44;;;3.65;97.26
29907;BME280;16776;50.958;10.994;2023-12-22T00:19:55;96425.84;;;3.67;97.52
29907;BME280;16776;50.958;10.994;2023-12-22T00:22:24;96427.59;;;3.65;98.40
29907;BME280;16776;50.958;10.994;2023-12-22T00:24:51;96429.25;;;3.66;98.47
29907;BME280;16776;50.958;10.994;2023-12-22T00:27:17;96429.25;;;3.66;97.37
29907;BME280;16776;50.958;10.994;2023-12-22T00:29:44;96429.22;;;3.67;97.48
29907;BME280;16776;50.958;10.994;2023-12-22T00:32:10;96426.69;;;3.67;97.57
29907;BME280;16776;50.958;10.994;2023-12-22T00:34:37;96437.69;;;3.68;98.60
29907;BME280;16776;50.958;10.994;2023-12-22T00:37:05;96418.94;;;3.70;98.11
29907;BME280;16776;50.958;10.994;2023-12-22T00:39:31;96424.97;;;3.68;97.24
29907;BME280;16776;50.958;10.994;2023-12-22T00:41:58;96424.09;;;3.69;97.77
29907;BME280;16776;50.958;10.994;2023-12-22T00:44:24;96417.31;;;3.68;97.58
29907;BME280;16776;50.958;10.994;2023-12-22T00:46:52;96416.44;;;3.69;97.94
29907;BME280;16776;50.958;10.994;2023-12-22T00:49:19;96419.00;;;3.69;97.87
29907;BME280;16776;50.958;10.994;2023-12-22T00:51:47;96415.50;;;3.71;97.61
29907;BME280;16776;50.958;10.994;2023-12-22T00:54:14;96411.19;;;3.73;97.34
29907;BME280;16776;50.958;10.994;2023-12-22T00:56:41;96412.06;;;3.72;97.87
29907;BME280;16776;50.958;10.994;2023-12-22T00:59:08;96407.81;;;3.73;97.40
29907;BME280;16776;50.958;10.994;2023-12-22T01:01:34;96404.34;;;3.75;98.16
29907;BME280;16776;50.958;10.994;2023-12-22T01:04:01;96412.84;;;3.74;98.00
29907;BME280;16776;50.958;10.994;2023-12-22T01:06:27;96413.75;;;3.73;98.21
29907;BME280;16776;50.958;10.994;2023-12-22T01:08:54;96410.34;;;3.73;97.33
29907;BME280;16776;50.958;10.994;2023-12-22T01:11:22;96426.41;;;3.75;97.54
29907;BME280;16776;50.958;10.994;2023-12-22T01:13:48;96424.84;;;3.71;97.92
29907;BME280;16776;50.958;10.994;2023-12-22T01:16:15;96423.22;;;3.70;97.47
29907;BME280;16776;50.958;10.994;2023-12-22T01:18:43;96434.22;;;3.70;97.57
29907;BME280;16776;50.958;10.994;2023-12-22T01:21:09;96442.78;;;3.68;97.41
29907;BME280;16776;50.958;10.994;2023-12-22T01:23:36;96442.88;;;3.65;98.12
29907;BME280;16776;50.958;10.994;2023-12-22T01:26:03;96437.03;;;3.63;98.36
29907;BME280;16776;50.958;10.994;2023-12-22T01:28:30;96461.59;;;3.64;98.64
29907;BME280;16776;50.958;10.994;2023-12-22T01:30:57;96447.28;;;3.60;98.38
29907;BME280;16776;50.958;10.994;2023-12-22T01:33:24;96452.44;;;3.58;97.55
29907;BME280;16776;50.958;10.994;2023-12-22T01:35:50;96476.25;;;3.57;97.78
29907;BME280;16776;50.958;10.994;2023-12-22T01:38:17;96477.94;;;3.57;97.55
29907;BME280;16776;50.958;10.994;2023-12-22T01:40:43;96421.00;;;3.34;98.34
29907;BME280;16776;50.958;10.994;2023-12-22T01:43:10;96455.06;;;3.57;98.38
29907;BME280;16776;50.958;10.994;2023-12-22T01:45:39;96468.66;;;3.56;98.53
29907;BME280;16776;50.958;10.994;2023-12-22T01:48:09;96428.78;;;3.30;98.23
29907;BME280;16776;50.958;10.994;2023-12-22T01:50:36;96466.06;;;3.57;98.59
29907;BME280;16776;50.958;10.994;2023-12-22T01:53:04;96462.69;;;3.57;98.45
29907;BME280;16776;50.958;10.994;2023-12-22T01:55:31;96472.00;;;3.58;98.65
29907;BME280;16776;50.958;10.994;2023-12-22T01:57:58;96480.38;;;3.60;97.84
29907;BME280;16776;50.958;10.994;2023-12-22T02:00:25;96461.69;;;3.61;98.83
29907;BME280;16776;50.958;10.994;2023-12-22T02:02:53;96465.03;;;3.63;98.47
29907;BME280;16776;50.958;10.994;2023-12-22T02:05:20;96465.91;;;3.62;98.06
29907;BME280;16776;50.958;10.994;2023-12-22T02:07:47;96467.56;;;3.63;98.97
29907;BME280;16776;50.958;10.994;2023-12-22T02:10:13;96482.75;;;3.64;98.69
29907;BME280;16776;50.958;10.994;2023-12-22T02:12:40;96470.03;;;3.64;98.95
29907;BME280;16776;50.958;10.994;2023-12-22T02:15:07;96453.84;;;3.67;98.92
29907;BME280;16776;50.958;10.994;2023-12-22T02:17:42;96461.38;;;3.70;99.15
29907;BME280;16776;50.958;10.994;2023-12-22T02:20:12;96463.03;;;3.71;99.37
29907;BME280;16776;50.958;10.994;2023-12-22T02:22:40;96453.75;;;3.70;99.13
29907;BME280;16776;50.958;10.994;2023-12-22T02:25:07;96458.06;;;3.68;99.26
29907;BME280;16776;50.958;10.994;2023-12-22T02:27:38;96459.72;;;3.69;99.30
29907;BME280;16776;50.958;10.994;2023-12-22T02:30:09;96468.28;;;3.66;99.47
29907;BME280;16776;50.958;10.994;2023-12-22T02:32:42;96462.31;;;3.67;100.00
29907;BME280;16776;50.958;10.994;2023-12-22T02:35:11;96471.69;;;3.65;99.78
29907;BME280;16776;50.958;10.994;2023-12-22T02:37:42;96463.34;;;3.62;100.00
29907;BME280;16776;50.958;10.994;2023-12-22T02:40:09;96435.41;;;3.35;100.00
29907;BME280;16776;50.958;10.994;2023-12-22T02:42:37;96469.63;;;3.52;99.64
29907;BME280;16776;50.958;10.994;2023-12-22T02:45:05;96468.84;;;3.50;100.00
29907;BME280;16776;50.958;10.994;2023-12-22T02:47:31;96464.72;;;3.45;100.00
29907;BME280;16776;50.958;10.994;2023-12-22T02:49:58;96449.59;;;3.42;99.80
29907;BME280;16776;50.958;10.994;2023-12-22T02:52:25;96442.03;;;3.39;100.00
29907;BME280;16776;50.958;10.994;2023-12-22T02:54:53;96454.00;;;3.37;100.00
29907;BME280;16776;50.958;10.994;2023-12-22T02:57:19;96452.41;;;3.33;99.75
29907;BME280;16776;50.958;10.994;2023-12-22T02:59:46;96471.16;;;3.31;100.00
29907;BME280;16776;50.958;10.994;2023-12-22T03:02:12;96471.19;;;3.29;100.00
29907;BME280;16776;50.958;10.994;2023-12-22T03:04:39;96480.53;;;3.29;100.00
29907;BME280;16776;50.958;10.994;2023-12-22T03:07:06;96478.84;;;3.28;99.99
29907;BME280;16776;50.958;10.994;2023-12-22T03:09:32;96477.97;;;3.29;100.00
29907;BME280;16776;50.958;10.994;2023-12-22T03:12:01;96477.97;;;3.30;100.00
29907;BME280;16776;50.958;10.994;2023-12-22T03:14:28;96479.69;;;3.28;100.00
29907;BME280;16776;50.958;10.994;2023-12-22T03:16:55;96483.09;;;3.27;100.00
29907;BME280;16776;50.958;10.994;2023-12-22T03:19:21;96484.78;;;3.28;100.00
29907;BME280;16776;50.958;10.994;2023-12-22T03:21:48;96483.97;;;3.26;100.00
29907;BME280;16776;50.958;10.994;2023-12-22T03:24:15;96472.22;;;3.24;100.00
29907;BME280;16776;50.958;10.994;2023-12-22T03:26:41;96478.19;;;3.23;100.00
29907;BME280;16776;50.958;10.994;2023-12-22T03:29:09;96476.47;;;3.23;100.00
29907;BME280;16776;50.958;10.994;2023-12-22T03:31:36;96467.22;;;3.21;100.00
29907;BME280;16776;50.958;10.994;2023-12-22T03:34:03;96468.03;;;3.21;100.00
29907;BME280;16776;50.958;10.994;2023-12-22T03:36:29;96483.31;;;3.21;100.00
29907;BME280;16776;50.958;10.994;2023-12-22T03:38:56;96513.81;;;3.21;100.00
29907;BME280;16776;50.958;10.994;2023-12-22T03:41:22;96523.16;;;3.21;100.00
29907;BME280;16776;50.958;10.994;2023-12-22T03:43:49;96533.34;;;3.21;100.00
29907;BME280;16776;50.958;10.994;2023-12-22T03:46:17;96528.22;;;3.22;100.00
29907;BME280;16776;50.958;10.994;2023-12-22T03:48:43;96507.38;;;3.11;100.00
29907;BME280;16776;50.958;10.994;2023-12-22T03:51:10;96481.50;;;2.98;100.00
29907;BME280;16776;50.958;10.994;2023-12-22T03:53:38;96515.72;;;3.15;100.00
29907;BME280;16776;50.958;10.994;2023-12-22T03:56:07;96509.03;;;3.12;100.00
29907;BME280;16776;50.958;10.994;2023-12-22T03:58:34;96524.41;;;3.07;100.00
29907;BME280;16776;50.958;10.994;2023-12-22T04:01:00;96527.91;;;3.05;100.00
29907;BME280;16776;50.958;10.994;2023-12-22T04:03:28;96526.25;;;3.04;100.00
29907;BME280;16776;50.958;10.994;2023-12-22T04:05:55;96539.09;;;2.99;100.00
29907;BME280;16776;50.958;10.994;2023-12-22T04:08:21;96542.50;;;2.98;100.00
29907;BME280;16776;50.958;10.994;2023-12-22T04:10:48;96528.50;;;2.85;100.00
29907;BME280;16776;50.958;10.994;2023-12-22T04:13:15;96550.22;;;2.95;100.00
29907;BME280;16776;50.958;10.994;2023-12-22T04:15:41;96558.78;;;2.93;100.00
29907;BME280;16776;50.958;10.994;2023-12-22T04:18:09;96514.66;;;2.66;100.00
29907;BME280;16776;50.958;10.994;2023-12-22T04:20:37;96535.09;;;2.91;100.00
29907;BME280;16776;50.958;10.994;2023-12-22T04:23:03;96526.78;;;2.86;100.00
29907;BME280;16776;50.958;10.994;2023-12-22T04:25:30;96532.78;;;2.83;100.00
29907;BME280;16776;50.958;10.994;2023-12-22T04:27:56;96536.31;;;2.79;100.00
29907;BME280;16776;50.958;10.994;2023-12-22T04:30:23;96547.38;;;2.77;100.00
29907;BME280;16776;50.958;10.994;2023-12-22T04:32:51;96559.41;;;2.72;100.00
29907;BME280;16776;50.958;10.994;2023-12-22T04:35:18;96550.19;;;2.68;100.00
29907;BME280;16776;50.958;10.994;2023-12-22T04:37:45;96549.41;;;2.65;100.00
29907;BME280;16776;50.958;10.994;2023-12-22T04:40:12;96548.75;;;2.59;100.00
29907;BME280;16776;50.958;10.994;2023-12-22T04:42:39;96548.78;;;2.57;100.00
29907;BME280;16776;50.958;10.994;2023-12-22T04:45:06;96541.31;;;2.53;100.00
29907;BME280;16776;50.958;10.994;2023-12-22T04:47:32;96553.19;;;2.51;100.00
29907;BME280;16776;50.958;10.994;2023-12-22T04:49:59;96559.22;;;2.48;100.00
29907;BME280;16776;50.958;10.994;2023-12-22T04:52:25;96559.25;;;2.47;100.00
29907;BME280;16776;50.958;10.994;2023-12-22T04:54:53;96563.50;;;2.46;100.00
29907;BME280;16776;50.958;10.994;2023-12-22T04:57:20;96573.78;;;2.42;100.00
29907;BME280;16776;50.958;10.994;2023-12-22T04:59:47;96558.59;;;2.40;100.00
29907;BME280;16776;50.958;10.994;2023-12-22T05:02:13;96589.09;;;2.39;100.00
29907;BME280;16776;50.958;10.994;2023-12-22T05:04:40;96573.91;;;2.37;100.00
29907;BME280;16776;50.958;10.994;2023-12-22T05:07:07;96552.81;;;2.35;100.00
29907;BME280;16776;50.958;10.994;2023-12-22T05:09:35;96549.44;;;2.35;100.00
29907;BME280;16776;50.958;10.994;2023-12-22T05:12:04;96552.81;;;2.35;100.00
29907;BME280;16776;50.958;10.994;2023-12-22T05:14:30;96537.63;;;2.32;100.00
29907;BME280;16776;50.958;10.994;2023-12-22T05:16:57;96524.09;;;2.32;100.00
29907;BME280;16776;50.958;10.994;2023-12-22T05:19:24;96535.09;;;2.32;100.00
29907;BME280;16776;50.958;10.994;2023-12-22T05:21:50;96530.03;;;2.32;100.00
29907;BME280;16776;50.958;10.994;2023-12-22T05:24:21;96524.94;;;2.32;100.00
29907;BME280;16776;50.958;10.994;2023-12-22T05:26:47;96526.59;;;2.33;100.00
29907;BME280;16776;50.958;10.994;2023-12-22T05:29:15;96527.47;;;2.32;100.00
29907;BME280;16776;50.958;10.994;2023-12-22T05:31:42;96525.81;;;2.31;100.00
29907;BME280;16776;50.958;10.994;2023-12-22T05:34:08;96529.19;;;2.32;100.00
29907;BME280;16776;50.958;10.994;2023-12-22T05:36:35;96531.72;;;2.32;100.00
29907;BME280;16776;50.958;10.994;2023-12-22T05:39:02;96522.44;;;2.31;100.00
29907;BME280;16776;50.958;10.994;2023-12-22T05:41:28;96522.41;;;2.32;100.00
29907;BME280;16776;50.958;10.994;2023-12-22T05:43:55;96502.06;;;2.32;100.00
29907;BME280;16776;50.958;10.994;2023-12-22T05:46:23;96514.72;;;2.35;100.00
29907;BME280;16776;50.958;10.994;2023-12-22T05:48:50;96498.66;;;2.33;100.00
29907;BME280;16776;50.958;10.994;2023-12-22T05:51:16;96491.06;;;2.33;100.00
29907;BME280;16776;50.958;10.994;2023-12-22T05:53:43;96497.81;;;2.34;100.00
29907;BME280;16776;50.958;10.994;2023-12-22T05:56:19;96498.47;;;2.41;100.00
29907;BME280;16776;50.958;10.994;2023-12-22T05:58:45;96517.28;;;2.34;100.00
29907;BME280;16776;50.958;10.994;2023-12-22T06:01:15;96521.38;;;2.38;100.00
29907;BME280;16776;50.958;10.994;2023-12-22T06:03:44;96507.84;;;2.37;100.00
29907;BME280;16776;50.958;10.994;2023-12-22T06:06:11;96508.72;;;2.36;100.00
29907;BME280;16776;50.958;10.994;2023-12-22T06:08:38;96504.66;;;2.31;100.00
29907;BME280;16776;50.958;10.994;2023-12-22T06:11:05;96487.63;;;2.34;100.00
29907;BME280;16776;50.958;10.994;2023-12-22T06:13:32;96499.41;;;2.37;100.00
29907;BME280;16776;50.958;10.994;2023-12-22T06:15:58;96487.81;;;2.28;100.00
29907;BME280;16776;50.958;10.994;2023-12-22T06:18:25;96497.69;;;2.37;100.00
29907;BME280;16776;50.958;10.994;2023-12-22T06:20:53;96506.97;;;2.38;100.00
29907;BME280;16776;50.958;10.994;2023-12-22T06:23:20;96495.22;;;2.36;100.00
29907;BME280;16776;50.958;10.994;2023-12-22T06:25:46;96500.25;;;2.37;100.00
29907;BME280;16776;50.958;10.994;2023-12-22T06:28:13;96497.69;;;2.37;100.00
29907;BME280;16776;50.958;10.994;2023-12-22T06:30:42;96514.56;;;2.40;100.00
29907;BME280;16776;50.958;10.994;2023-12-22T06:33:09;96519.63;;;2.41;100.00
29907;BME280;16776;50.958;10.994;2023-12-22T06:35:36;96522.09;;;2.43;100.00
29907;BME280;16776;50.958;10.994;2023-12-22T06:38:04;96541.44;;;2.48;100.00
29907;BME280;16776;50.958;10.994;2023-12-22T06:40:31;96529.56;;;2.49;100.00
29907;BME280;16776;50.958;10.994;2023-12-22T06:42:58;96551.44;;;2.54;100.00
29907;BME280;16776;50.958;10.994;2023-12-22T06:45:24;96554.72;;;2.56;100.00
29907;BME280;16776;50.958;10.994;2023-12-22T06:47:51;96568.25;;;2.58;100.00
29907;BME280;16776;50.958;10.994;2023-12-22T06:50:17;96568.25;;;2.58;100.00
29907;BME280;16776;50.958;10.994;2023-12-22T06:52:44;96573.31;;;2.58;100.00
29907;BME280;16776;50.958;10.994;2023-12-22T06:55:12;96572.44;;;2.59;100.00
29907;BME280;16776;50.958;10.994;2023-12-22T06:57:39;96566.59;;;2.56;100.00
29907;BME280;16776;50.958;10.994;2023-12-22T07:00:06;96569.97;;;2.56;100.00
29907;BME280;16776;50.958;10.994;2023-12-22T07:02:33;96576.84;;;2.54;100.00
29907;BME280;16776;50.958;10.994;2023-12-22T07:05:04;96571.75;;;2.54;100.00
29907;BME280;16776;50.958;10.994;2023-12-22T07:07:50;96585.47;;;2.49;100.00
29907;BME280;16776;50.958;10.994;2023-12-22T07:10:18;96581.19;;;2.49;100.00
29907;BME280;16776;50.958;10.994;2023-12-22T07:12:45;96585.50;;;2.47;100.00
29907;BME280;16776;50.958;10.994;2023-12-22T07:15:11;96607.56;;;2.45;100.00
29907;BME280;16776;50.958;10.994;2023-12-22T07:17:38;96600.81;;;2.44;100.00
29907;BME280;16776;50.958;10.994;2023-12-22T07:20:05;96595.00;;;2.41;100.00
29907;BME280;16776;50.958;10.994;2023-12-22T07:22:32;96612.59;;;2.47;100.00
29907;BME280;16776;50.958;10.994;2023-12-22T07:24:58;96619.34;;;2.48;100.00
29907;BME280;16776;50.958;10.994;2023-12-22T07:27:26;96611.59;;;2.52;100.00
29907;BME280;16776;50.958;10.994;2023-12-22T07:29:53;96620.97;;;2.50;100.00
29907;BME280;16776;50.958;10.994;2023-12-22T07:32:19;96614.16;;;2.52;100.00
29907;BME280;16776;50.958;10.994;2023-12-22T07:34:46;96611.56;;;2.54;100.00
29907;BME280;16776;50.958;10.994;2023-12-22T07:37:13;96605.66;;;2.53;100.00
29907;BME280;16776;50.958;10.994;2023-12-22T07:39:39;96610.69;;;2.55;100.00
29907;BME280;16776;50.958;10.994;2023-12-22T07:42:07;96610.72;;;2.53;100.00
29907;BME280;16776;50.958;10.994;2023-12-22T07:44:35;96614.03;;;2.55;100.00
29907;BME280;16776;50.958;10.994;2023-12-22T07:47:01;96618.34;;;2.53;100.00
29907;BME280;16776;50.958;10.994;2023-12-22T07:49:28;96610.72;;;2.53;100.00
29907;BME280;16776;50.958;10.994;2023-12-22T07:51:55;96616.59;;;2.55;100.00
29907;BME280;16776;50.958;10.994;2023-12-22T07:54:21;96607.22;;;2.57;100.00
29907;BME280;16776;50.958;10.994;2023-12-22T07:56:48;96613.97;;;2.58;100.00
29907;BME280;16776;50.958;10.994;2023-12-22T07:59:14;96608.81;;;2.61;100.00
29907;BME280;16776;50.958;10.994;2023-12-22T08:01:42;96616.31;;;2.66;100.00
29907;BME280;16776;50.958;10.994;2023-12-22T08:04:09;96600.97;;;2.69;100.00
29907;BME280;16776;50.958;10.994;2023-12-22T08:06:36;96625.47;;;2.72;100.00
29907;BME280;16776;50.958;10.994;2023-12-22T08:09:02;96623.63;;;2.77;100.00
29907;BME280;16776;50.958;10.994;2023-12-22T08:11:29;96630.31;;;2.81;100.00
29907;BME280;16776;50.958;10.994;2023-12-22T08:13:56;96646.31;;;2.84;100.00
29907;BME280;16776;50.958;10.994;2023-12-22T08:16:22;96651.28;;;2.87;100.00
29907;BME280;16776;50.958;10.994;2023-12-22T08:18:50;96645.22;;;2.93;100.00
29907;BME280;16776;50.958;10.994;2023-12-22T08:21:18;96641.72;;;2.97;100.00
29907;BME280;16776;50.958;10.994;2023-12-22T08:23:44;96654.94;;;3.08;100.00
29907;BME280;16776;50.958;10.994;2023-12-22T08:26:11;96662.78;;;3.31;100.00
29907;BME280;16776;50.958;10.994;2023-12-22T08:28:40;96660.88;;;3.66;100.00
29907;BME280;16776;50.958;10.994;2023-12-22T08:31:07;96660.63;;;4.01;100.00
29907;BME280;16776;50.958;10.994;2023-12-22T08:33:34;96666.28;;;4.36;100.00
29907;BME280;16776;50.958;10.994;2023-12-22T08:36:02;96685.66;;;4.66;100.00
29907;BME280;16776;50.958;10.994;2023-12-22T08:38:29;96695.97;;;4.86;100.00
29907;BME280;16776;50.958;10.994;2023-12-22T08:40:55;96694.66;;;4.99;100.00
29907;BME280;16776;50.958;10.994;2023-12-22T08:43:22;96696.13;;;5.06;100.00
29907;BME280;16776;50.958;10.994;2023-12-22T08:45:48;96685.91;;;5.06;99.96
29907;BME280;16776;50.958;10.994;2023-12-22T08:48:15;96680.94;;;5.03;99.24
29907;BME280;16776;50.958;10.994;2023-12-22T08:50:42;96682.81;;;4.98;98.76
29907;BME280;16776;50.958;10.994;2023-12-22T08:53:09;96677.78;;;4.97;99.10
29907;BME280;16776;50.958;10.994;2023-12-22T08:55:37;96683.00;;;4.92;99.15
29907;BME280;16776;50.958;10.994;2023-12-22T08:58:04;96689.91;;;4.90;98.95
29907;BME280;16776;50.958;10.994;2023-12-22T09:00:30;96696.81;;;4.87;98.51
29907;BME280;16776;50.958;10.994;2023-12-22T09:02:57;96707.19;;;4.82;98.47
29907;BME280;16776;50.958;10.994;2023-12-22T09:05:23;96714.16;;;4.77;98.63
29907;BME280;16776;50.958;10.994;2023-12-22T09:07:50;96706.69;;;4.73;98.32
29907;BME280;16776;50.958;10.994;2023-12-22T09:10:18;96707.59;;;4.70;98.98
29907;BME280;16776;50.958;10.994;2023-12-22T09:12:45;96714.59;;;4.65;98.06
29907;BME280;16776;50.958;10.994;2023-12-22T09:15:12;96713.00;;;4.61;98.21
29907;BME280;16776;50.958;10.994;2023-12-22T09:17:39;96738.63;;;4.58;98.26
29907;BME280;16776;50.958;10.994;2023-12-22T09:20:07;96730.19;;;4.56;98.08
29907;BME280;16776;50.958;10.994;2023-12-22T09:22:34;96727.78;;;4.51;98.28
29907;BME280;16776;50.958;10.994;2023-12-22T09:25:00;96732.97;;;4.48;98.02
29907;BME280;16776;50.958;10.994;2023-12-22T09:27:28;96731.25;;;4.49;98.04
29907;BME280;16776;50.958;10.994;2023-12-22T09:29:56;96745.00;;;4.45;98.57
29907;BME280;16776;50.958;10.994;2023-12-22T09:32:22;96732.28;;;4.43;98.27
29907;BME280;16776;50.958;10.994;2023-12-22T09:34:49;96730.69;;;4.41;98.64
29907;BME280;16776;50.958;10.994;2023-12-22T09:37:16;96741.69;;;4.41;98.67
29907;BME280;16776;50.958;10.994;2023-12-22T09:39:42;96739.09;;;4.43;98.54
29907;BME280;16776;50.958;10.994;2023-12-22T09:42:09;96734.00;;;4.43;98.64
29907;BME280;16776;50.958;10.994;2023-12-22T09:44:38;96732.13;;;4.48;98.51
29907;BME280;16776;50.958;10.994;2023-12-22T09:47:06;96727.16;;;4.45;98.52
29907;BME280;16776;50.958;10.994;2023-12-22T09:49:34;96721.19;;;4.46;98.08
29907;BME280;16776;50.958;10.994;2023-12-22T09:52:01;96734.75;;;4.46;98.40
29907;BME280;16776;50.958;10.994;2023-12-22T09:54:30;96731.31;;;4.47;98.30
29907;BME280;16776;50.958;10.994;2023-12-22T09:56:57;96742.41;;;4.46;98.45
29907;BME280;16776;50.958;10.994;2023-12-22T09:59:24;96749.97;;;4.48;97.80
29907;BME280;16776;50.958;10.994;2023-12-22T10:01:54;96752.44;;;4.51;98.11
29907;BME280;16776;50.958;10.994;2023-12-22T10:04:21;96751.72;;;4.47;97.62
29907;BME280;16776;50.958;10.994;2023-12-22T10:06:48;96738.13;;;4.47;97.75
29907;BME280;16776;50.958;10.994;2023-12-22T10:09:15;96738.13;;;4.47;98.08
29907;BME280;16776;50.958;10.994;2023-12-22T10:11:43;96743.25;;;4.47;98.00
29907;BME280;16776;50.958;10.994;2023-12-22T10:14:11;96733.91;;;4.46;97.36
29907;BME280;16776;50.958;10.994;2023-12-22T10:16:45;96739.09;;;4.43;97.54
29907;BME280;16776;50.958;10.994;2023-12-22T10:19:15;96728.03;;;4.44;97.96
29907;BME280;16776;50.958;10.994;2023-12-22T10:21:42;96740.09;;;4.39;97.76
29907;BME280;16776;50.958;10.994;2023-12-22T10:24:39;96744.00;;;4.49;97.74
29907;BME280;16776;50.958;10.994;2023-12-22T10:27:08;96750.28;;;4.39;97.88
29907;BME280;16776;50.958;10.994;2023-12-22T10:29:34;96748.56;;;4.39;97.90
29907;BME280;16776;50.958;10.994;2023-12-22T10:32:02;96747.75;;;4.39;98.30
29907;BME280;16776;50.958;10.994;2023-12-22T10:34:30;96738.25;;;4.42;98.42
29907;BME280;16776;50.958;10.994;2023-12-22T10:36:58;96722.13;;;4.42;97.87
29907;BME280;16776;50.958;10.994;2023-12-22T10:39:27;96715.31;;;4.42;98.05
29907;BME280;16776;50.958;10.994;2023-12-22T10:41:54;96710.31;;;4.41;98.75
29907;BME280;16776;50.958;10.994;2023-12-22T10:44:23;96714.41;;;4.45;98.13
29907;BME280;16776;50.958;10.994;2023-12-22T10:46:50;96712.78;;;4.42;98.35
29907;BME280;16776;50.958;10.994;2023-12-22T10:49:17;96719.59;;;4.42;98.76
29907;BME280;16776;50.958;10.994;2023-12-22T10:51:45;96706.84;;;4.42;98.28
29907;BME280;16776;50.958;10.994;2023-12-22T10:54:12;96727.16;;;4.45;97.71
29907;BME280;16776;50.958;10.994;2023-12-22T10:56:39;96723.09;;;4.39;98.20
29907;BME280;16776;50.958;10.994;2023-12-22T10:59:07;96733.16;;;4.42;98.15
29907;BME280;16776;50.958;10.994;2023-12-22T11:01:35;96728.06;;;4.42;98.10
29907;BME280;16776;50.958;10.994;2023-12-22T11:04:06;96722.13;;;4.42;98.39
29907;BME280;16776;50.958;10.994;2023-12-22T11:06:35;96739.31;;;4.37;98.34
29907;BME280;16776;50.958;10.994;2023-12-22T11:09:07;96725.63;;;4.39;98.53
29907;BME280;16776;50.958;10.994;2023-12-22T11:11:36;96719.03;;;4.34;98.68
29907;BME280;16776;50.958;10.994;2023-12-22T11:14:03;96696.19;;;4.31;98.93
29907;BME280;16776;50.958;10.994;2023-12-22T11:16:31;96690.25;;;4.30;99.03
29907;BME280;16776;50.958;10.994;2023-12-22T11:18:59;96690.38;;;4.27;99.23
29907;BME280;16776;50.958;10.994;2023-12-22T11:21:26;96671.66;;;4.28;98.74
29907;BME280;16776;50.958;10.994;2023-12-22T11:23:54;96670.84;;;4.26;98.61
29907;BME280;16776;50.958;10.994;2023-12-22T11:26:24;96671.69;;;4.27;99.03
29907;BME280;16776;50.958;10.994;2023-12-22T11:28:51;96667.53;;;4.24;99.10
29907;BME280;16776;50.958;10.994;2023-12-22T11:31:18;96656.81;;;4.14;99.57
29907;BME280;16776;50.958;10.994;2023-12-22T11:33:47;96650.63;;;4.21;99.13
29907;BME280;16776;50.958;10.994;2023-12-22T11:36:15;96643.91;;;4.19;99.13
29907;BME280;16776;50.958;10.994;2023-12-22T11:38:44;96646.50;;;4.17;99.69
29907;BME280;16776;50.958;10.994;2023-12-22T11:41:14;96632.09;;;4.16;99.97
29907;BME280;16776;50.958;10.994;2023-12-22T11:43:44;96636.31;;;4.17;99.79
29907;BME280;16776;50.958;10.994;2023-12-22T11:46:11;96619.47;;;4.13;99.89
29907;BME280;16776;50.958;10.994;2023-12-22T11:48:37;96622.06;;;4.12;99.34
29907;BME280;16776;50.958;10.994;2023-12-22T11:51:12;96626.13;;;4.17;99.14
29907;BME280;16776;50.958;10.994;2023-12-22T11:53:39;96618.72;;;4.10;100.00
29907;BME280;16776;50.958;10.994;2023-12-22T11:56:07;96614.47;;;4.10;99.62
29907;BME280;16776;50.958;10.994;2023-12-22T11:58:38;96599.97;;;4.12;100.00
29907;BME280;16776;50.958;10.994;2023-12-22T12:01:08;96580.47;;;4.11;100.00
29907;BME280;16776;50.958;10.994;2023-12-22T12:03:41;96588.97;;;4.12;99.66
29907;BME280;16776;50.958;10.994;2023-12-22T12:06:14;96580.44;;;4.13;99.70
29907;BME280;16776;50.958;10.994;2023-12-22T12:08:40;96580.59;;;4.08;100.00
29907;BME280;16776;50.958;10.994;2023-12-22T12:11:09;96586.56;;;4.07;100.00
29907;BME280;16776;50.958;10.994;2023-12-22T12:13:41;96589.00;;;4.10;99.77
29907;BME280;16776;50.958;10.994;2023-12-22T12:16:12;96592.34;;;4.12;100.00
29907;BME280;16776;50.958;10.994;2023-12-22T12:18:39;96587.34;;;4.09;100.00
29907;BME280;16776;50.958;10.994;2023-12-22T12:21:06;96561.53;;;3.95;100.00
29907;BME280;16776;50.958;10.994;2023-12-22T12:23:33;96587.25;;;4.12;100.00
29907;BME280;16776;50.958;10.994;2023-12-22T12:26:00;96588.03;;;4.14;100.00
29907;BME280;16776;50.958;10.994;2023-12-22T12:28:29;96597.28;;;4.17;100.00
29907;BME280;16776;50.958;10.994;2023-12-22T12:30:57;96591.28;;;4.18;100.00
29907;BME280;16776;50.958;10.994;2023-12-22T12:33:26;96584.41;;;4.21;100.00
29907;BME280;16776;50.958;10.994;2023-12-22T12:35:56;96579.22;;;4.23;100.00
29907;BME280;16776;50.958;10.994;2023-12-22T12:38:34;96585.16;;;4.23;100.00
29907;BME280;16776;50.958;10.994;2023-12-22T12:41:04;96578.31;;;4.25;100.00
29907;BME280;16776;50.958;10.994;2023-12-22T12:43:31;96588.53;;;4.24;100.00
29907;BME280;16776;50.958;10.994;2023-12-22T12:46:03;96605.31;;;4.30;100.00
29907;BME280;16776;50.958;10.994;2023-12-22T12:48:31;96594.31;;;4.29;100.00
29907;BME280;16776;50.958;10.994;2023-12-22T12:51:02;96588.28;;;4.32;100.00
29907;BME280;16776;50.958;10.994;2023-12-22T12:53:30;96568.91;;;4.28;100.00
29907;BME280;16776;50.958;10.994;2023-12-22T12:55:58;96574.75;;;4.30;100.00